createdAt,value
2023-04-10T00:03:41.604Z,101176.25
2023-04-10T00:08:47.494Z,101175.59
2023-04-10T00:13:51.153Z,101178.58
2023-04-10T00:19:00.731Z,101184.15
2023-04-10T00:24:04.966Z,101182.23
2023-04-10T00:29:08.408Z,101184.32
2023-04-10T00:34:12.154Z,101183.80
2023-04-10T00:39:25.886Z,101184.16
2023-04-10T00:44:29.292Z,101182.08
2023-04-10T00:49:56.054Z,101180.70
2023-04-10T00:54:59.582Z,101180.52
2023-04-10T01:00:52.602Z,101189.37
2023-04-10T01:06:08.199Z,101194.91
2023-04-10T01:11:25.422Z,101192.66
2023-04-10T01:16:46.617Z,101198.73
2023-04-10T01:21:52.816Z,101195.25
2023-04-10T01:27:25.369Z,101193.17
2023-04-10T01:32:34.810Z,101191.44
2023-04-10T01:37:44.463Z,101187.63
2023-04-10T01:43:05.514Z,101177.39
2023-04-10T01:48:22.480Z,101187.60
2023-04-10T01:53:31.625Z,101193.50
2023-04-10T01:58:36.863Z,101185.35
2023-04-10T02:03:41.372Z,101186.03
2023-04-10T02:09:22.015Z,101190.86
2023-04-10T02:14:31.821Z,101190.14
2023-04-10T02:19:37.543Z,101187.52
2023-04-10T02:24:41.170Z,101192.20
2023-04-10T02:29:44.726Z,101193.77
2023-04-10T02:35:08.836Z,101200.52
2023-04-10T02:40:13.788Z,101200.82
2023-04-10T02:45:27.276Z,101203.19
2023-04-10T02:50:32.416Z,101200.55
2023-04-10T02:55:36.252Z,101198.63
2023-04-10T03:00:39.755Z,101196.39
2023-04-10T03:05:51.633Z,101196.67
2023-04-10T03:10:59.103Z,101197.05
2023-04-10T03:16:03.327Z,101194.92
2023-04-10T03:21:07.663Z,101196.06
2023-04-10T03:26:24.236Z,101196.27
2023-04-10T03:31:28.282Z,101195.52
2023-04-10T03:36:33.491Z,101194.13
2023-04-10T03:41:39.231Z,101186.77
2023-04-10T03:46:53.839Z,101194.38
2023-04-10T03:51:57.553Z,101194.33
2023-04-10T03:57:01.699Z,101195.30
2023-04-10T04:02:07.713Z,101191.09
2023-04-10T04:07:13.608Z,101200.27
2023-04-10T04:12:31.383Z,101207.74
2023-04-10T04:17:42.506Z,101207.94
2023-04-10T04:23:06.213Z,101212.92
2023-04-10T04:28:39.221Z,101222.65
2023-04-10T04:34:23.205Z,101228.52
2023-04-10T04:39:51.920Z,101230.34
2023-04-10T04:45:24.974Z,101231.59
2023-04-10T04:50:43.797Z,101237.89
2023-04-10T04:56:10.092Z,101241.97
2023-04-10T05:01:26.610Z,101245.70
2023-04-10T05:06:50.617Z,101241.42
2023-04-10T05:12:45.711Z,101246.52
2023-04-10T05:18:14.284Z,101255.42
2023-04-10T05:23:37.100Z,101247.30
2023-04-10T05:29:06.541Z,101251.84
2023-04-10T05:34:30.200Z,101252.90
2023-04-10T05:39:52.514Z,101254.05
2023-04-10T05:45:28.980Z,101248.62
2023-04-10T05:50:52.922Z,101251.90
2023-04-10T05:56:22.283Z,101252.86
2023-04-10T06:01:42.293Z,101254.28
2023-04-10T06:06:48.901Z,101257.31
2023-04-10T06:11:54.951Z,101267.60
2023-04-10T06:17:03.487Z,101266.65
2023-04-10T06:22:07.006Z,101274.23
2023-04-10T06:27:10.392Z,101275.68
2023-04-10T06:32:16.541Z,101267.30
2023-04-10T06:37:20.135Z,101267.70
2023-04-10T06:42:23.470Z,101267.80
2023-04-10T06:47:33.279Z,101270.71
2023-04-10T06:52:36.729Z,101272.22
2023-04-10T06:57:40.551Z,101269.70
2023-04-10T07:02:43.742Z,101271.59
2023-04-10T07:07:47.735Z,101274.84
2023-04-10T07:12:51.233Z,101271.41
2023-04-10T07:17:56.360Z,101276.76
2023-04-10T07:22:59.752Z,101275.42
2023-04-10T07:28:03.153Z,101278.75
2023-04-10T07:33:06.979Z,101280.85
2023-04-10T07:38:12.005Z,101280.74
2023-04-10T07:43:15.671Z,101276.72
2023-04-10T07:48:19.038Z,101273.52
2023-04-10T07:53:22.422Z,101274.23
2023-04-10T07:58:25.950Z,101275.85
2023-04-10T08:03:32.075Z,101272.59
2023-04-10T08:08:37.650Z,101270.46
2023-04-10T08:13:41.062Z,101272.07
2023-04-10T08:18:44.273Z,101272.59
2023-04-10T08:23:47.605Z,101270.02
2023-04-10T08:29:01.583Z,101266.85
2023-04-10T08:34:05.062Z,101265.27
2023-04-10T08:39:08.573Z,101270.17
2023-04-10T08:44:12.252Z,101266.14
2023-04-10T08:49:40.853Z,101266.11
2023-04-10T08:54:48.538Z,101257.55
2023-04-10T08:59:51.954Z,101255.52
2023-04-10T09:04:59.154Z,101256.42
2023-04-10T09:10:02.465Z,101249.04
2023-04-10T09:15:06.514Z,101247.39
2023-04-10T09:20:22.520Z,101244.11
2023-04-10T09:25:35.035Z,101240.15
2023-04-10T09:30:42.608Z,101235.35
2023-04-10T09:35:46.198Z,101226.27
2023-04-10T09:40:50.455Z,101225.77
2023-04-10T09:45:56.662Z,101224.45
2023-04-10T09:51:00.132Z,101215.84
2023-04-10T09:56:22.325Z,101208.98
2023-04-10T10:01:30.182Z,101206.48
2023-04-10T10:06:34.855Z,101196.90
2023-04-10T10:11:38.327Z,101191.83
2023-04-10T10:16:49.684Z,101190.03
2023-04-10T10:21:55.588Z,101177.63
2023-04-10T10:27:01.911Z,101172.97
2023-04-10T10:32:08.512Z,101165.43
2023-04-10T10:37:12.536Z,101165.69
2023-04-10T10:42:43.478Z,101154.08
2023-04-10T10:47:53.789Z,101148.33
2023-04-10T10:52:57.764Z,101148.08
2023-04-10T10:58:05.529Z,101151.47
2023-04-10T11:03:08.974Z,101147.19
2023-04-10T11:08:12.368Z,101146.73
2023-04-10T11:13:18.009Z,101142.42
2023-04-10T11:18:51.203Z,101134.77
2023-04-10T11:23:59.624Z,101128.29
2023-04-10T11:29:04.626Z,101114.76
2023-04-10T11:34:10.708Z,101109.20
2023-04-10T11:39:20.520Z,101108.50
2023-04-10T11:44:30.578Z,101108.72
2023-04-10T11:49:42.961Z,101102.47
2023-04-10T11:54:49.380Z,101091.44
2023-04-10T11:59:52.714Z,101083.38
2023-04-10T12:05:07.911Z,101073.16
2023-04-10T12:10:21.618Z,101063.48
2023-04-10T12:15:29.431Z,101057.02
2023-04-10T12:20:44.961Z,101045.98
2023-04-10T12:25:48.418Z,101039.76
2023-04-10T12:30:53.562Z,101035.34
2023-04-10T12:35:57.049Z,101029.97
2023-04-10T12:41:01.577Z,101021.46
2023-04-10T12:46:06.670Z,101007.45
2023-04-10T12:51:12.477Z,101011.54
2023-04-10T12:56:25.928Z,101008.26
2023-04-10T13:01:29.368Z,101000.35
2023-04-10T13:06:32.968Z,100988.10
2023-04-10T13:11:36.497Z,100981.32
2023-04-10T13:17:01.003Z,100977.48
2023-04-10T13:22:12.675Z,100971.53
2023-04-10T13:27:16.223Z,100968.41
2023-04-10T13:32:19.480Z,100966.02
2023-04-10T13:37:22.856Z,100964.86
2023-04-10T13:42:26.687Z,100965.48
2023-04-10T13:47:30.139Z,100958.23
2023-04-10T13:52:33.445Z,100957.45
2023-04-10T13:57:36.895Z,100952.08
2023-04-10T14:02:40.796Z,100951.00
2023-04-10T14:07:44.288Z,100948.63
2023-04-10T14:12:47.484Z,100953.65
2023-04-10T14:17:50.818Z,100955.91
2023-04-10T14:22:54.179Z,100949.95
2023-04-10T14:27:57.544Z,100947.36
2023-04-10T14:33:01.079Z,100936.91
2023-04-10T14:38:04.634Z,100940.39
2023-04-10T14:43:08.226Z,100938.19
2023-04-10T14:48:12.953Z,100932.23
2023-04-10T14:53:17.001Z,100930.04
2023-04-10T14:58:20.612Z,100928.70
2023-04-10T15:03:25.333Z,100923.82
2023-04-10T15:08:29.019Z,100919.18
2023-04-10T15:13:32.960Z,100915.20
2023-04-10T15:18:36.168Z,100917.46
2023-04-10T15:23:39.814Z,100912.97
2023-04-10T15:28:43.646Z,100909.73
2023-04-10T15:33:47.059Z,100905.94
2023-04-10T15:38:50.505Z,100903.55
2023-04-10T15:43:54.352Z,100897.23
2023-04-10T15:48:59.183Z,100890.37
2023-04-10T15:54:05.397Z,100887.02
2023-04-10T15:59:09.551Z,100884.36
2023-04-10T16:04:13.230Z,100875.25
2023-04-10T16:14:24.843Z,100874.79
2023-04-10T16:19:32.199Z,100870.80
2023-04-10T16:24:35.731Z,100867.73
2023-04-10T16:29:39.150Z,100865.27
2023-04-10T16:34:42.739Z,100859.25
2023-04-10T16:39:46.204Z,100860.91
2023-04-10T16:44:49.696Z,100860.21
2023-04-10T16:49:52.935Z,100858.83
2023-04-10T16:54:56.760Z,100858.25
2023-04-10T17:00:01.104Z,100853.54
2023-04-10T17:05:05.074Z,100850.13
2023-04-10T17:10:09.277Z,100852.11
2023-04-10T17:15:12.850Z,100853.55
2023-04-10T17:20:17.007Z,100851.52
2023-04-10T17:25:20.773Z,100852.77
2023-04-10T17:30:27.164Z,100853.64
2023-04-10T17:35:44.504Z,100858.92
2023-04-10T17:40:48.029Z,100859.72
2023-04-10T17:45:54.958Z,100858.19
2023-04-10T17:50:59.057Z,100856.05
2023-04-10T17:56:03.540Z,100854.70
2023-04-10T18:01:09.493Z,100852.02
2023-04-10T18:06:33.321Z,100852.27
2023-04-10T18:11:37.280Z,100847.16
2023-04-10T18:16:48.954Z,100850.65
2023-04-10T18:21:52.723Z,100853.59
2023-04-10T18:26:56.683Z,100853.71
2023-04-10T18:32:00.276Z,100857.83
2023-04-10T18:37:03.773Z,100853.94
2023-04-10T18:42:28.049Z,100849.73
2023-04-10T18:47:34.300Z,100850.64
2023-04-10T18:52:38.080Z,100847.97
2023-04-10T18:57:41.779Z,100846.36
2023-04-10T19:02:48.945Z,100841.31
2023-04-10T19:08:03.016Z,100838.50
2023-04-10T19:13:12.087Z,100833.64
2023-04-10T19:18:16.561Z,100831.04
2023-04-10T19:23:21.587Z,100823.38
2023-04-10T19:28:26.591Z,100823.70
2023-04-10T19:33:31.490Z,100818.48
2023-04-10T19:38:36.543Z,100818.91
2023-04-10T19:43:40.571Z,100820.06
2023-04-10T19:48:44.528Z,100816.45
2023-04-10T19:53:48.007Z,100813.19
2023-04-10T19:58:57.954Z,100814.64
2023-04-10T20:04:02.037Z,100814.95
2023-04-10T20:09:05.666Z,100806.64
2023-04-10T20:14:10.762Z,100802.92
2023-04-10T20:19:26.982Z,100798.41
2023-04-10T20:24:30.470Z,100797.91
2023-04-10T20:29:33.903Z,100794.14
2023-04-10T20:34:37.703Z,100792.64
2023-04-10T20:39:41.180Z,100792.50
2023-04-10T20:44:46.905Z,100790.05
2023-04-10T20:49:50.837Z,100789.83
2023-04-10T20:54:54.267Z,100792.46
2023-04-10T20:59:57.659Z,100791.12
2023-04-10T21:05:12.393Z,100783.58
2023-04-10T21:10:23.653Z,100783.16
2023-04-10T21:15:29.930Z,100781.33
2023-04-10T21:20:36.166Z,100781.14
2023-04-10T21:25:39.695Z,100780.08
2023-04-10T21:30:45.494Z,100779.13
2023-04-10T21:35:51.912Z,100771.30
2023-04-10T21:41:26.020Z,100769.27
2023-04-10T21:46:31.124Z,100764.17
2023-04-10T21:51:55.140Z,100763.10
2023-04-10T21:57:01.939Z,100755.41
2023-04-10T22:02:10.789Z,100753.09
2023-04-10T22:07:14.426Z,100744.58
2023-04-10T22:12:34.417Z,100740.52
2023-04-10T22:17:58.364Z,100738.20
2023-04-10T22:23:22.468Z,100730.77
2023-04-10T22:28:26.022Z,100725.98
2023-04-10T22:33:32.615Z,100722.09
2023-04-10T22:38:35.868Z,100713.81
2023-04-10T22:43:39.146Z,100712.33
2023-04-10T22:48:55.397Z,100710.01
2023-04-10T22:54:01.402Z,100703.15
2023-04-10T22:59:05.320Z,100694.58
2023-04-10T23:04:08.659Z,100692.53
2023-04-10T23:09:12.103Z,100689.39
2023-04-10T23:14:15.619Z,100688.55
2023-04-10T23:19:19.274Z,100682.02
2023-04-10T23:24:45.822Z,100673.95
2023-04-10T23:29:50.238Z,100660.85
2023-04-10T23:34:53.594Z,100651.33
2023-04-10T23:39:57.120Z,100639.92
2023-04-10T23:45:06.281Z,100629.37
2023-04-10T23:50:10.462Z,100629.77
2023-04-10T23:55:23.885Z,100624.85
